sensor_id;sensor_type;location;lat;lon;timestamp;P1;durP1;ratioP1;P2;durP2;ratioP2
60006;SDS011;45863;50.336;3.536;2023-02-17T00:00:17;14.03;;;8.80;;
60006;SDS011;45863;50.336;3.536;2023-02-17T00:02:42;13.10;;;9.20;;
60006;SDS011;45863;50.336;3.536;2023-02-17T00:05:08;13.07;;;8.73;;
60006;SDS011;45863;50.336;3.536;2023-02-17T00:07:33;14.20;;;8.83;;
60006;SDS011;45863;50.336;3.536;2023-02-17T00:09:58;15.38;;;9.63;;
60006;SDS011;45863;50.336;3.536;2023-02-17T00:12:24;13.43;;;8.95;;
60006;SDS011;45863;50.336;3.536;2023-02-17T00:14:49;13.60;;;9.30;;
60006;SDS011;45863;50.336;3.536;2023-02-17T00:17:14;13.93;;;9.83;;
60006;SDS011;45863;50.336;3.536;2023-02-17T00:19:39;17.30;;;10.38;;
60006;SDS011;45863;50.336;3.536;2023-02-17T00:22:05;15.50;;;10.68;;
60006;SDS011;45863;50.336;3.536;2023-02-17T00:24:30;19.70;;;10.90;;
60006;SDS011;45863;50.336;3.536;2023-02-17T00:26:56;15.35;;;10.65;;
60006;SDS011;45863;50.336;3.536;2023-02-17T00:29:21;16.42;;;10.15;;
60006;SDS011;45863;50.336;3.536;2023-02-17T00:31:47;13.10;;;9.20;;
60006;SDS011;45863;50.336;3.536;2023-02-17T00:34:12;16.20;;;10.05;;
60006;SDS011;45863;50.336;3.536;2023-02-17T00:36:37;15.50;;;9.20;;
60006;SDS011;45863;50.336;3.536;2023-02-17T00:39:03;14.57;;;8.43;;
60006;SDS011;45863;50.336;3.536;2023-02-17T00:41:28;14.60;;;9.25;;
60006;SDS011;45863;50.336;3.536;2023-02-17T00:43:53;14.00;;;8.90;;
60006;SDS011;45863;50.336;3.536;2023-02-17T00:46:19;13.38;;;8.18;;
60006;SDS011;45863;50.336;3.536;2023-02-17T00:48:45;14.15;;;8.45;;
60006;SDS011;45863;50.336;3.536;2023-02-17T00:51:10;12.82;;;7.90;;
60006;SDS011;45863;50.336;3.536;2023-02-17T00:53:35;15.52;;;9.00;;
60006;SDS011;45863;50.336;3.536;2023-02-17T00:56:01;13.93;;;8.85;;
60006;SDS011;45863;50.336;3.536;2023-02-17T00:58:26;13.48;;;8.70;;
60006;SDS011;45863;50.336;3.536;2023-02-17T01:00:51;12.10;;;7.85;;
60006;SDS011;45863;50.336;3.536;2023-02-17T01:03:18;13.68;;;8.38;;
60006;SDS011;45863;50.336;3.536;2023-02-17T01:05:45;13.30;;;8.50;;
60006;SDS011;45863;50.336;3.536;2023-02-17T01:08:11;11.90;;;7.75;;
60006;SDS011;45863;50.336;3.536;2023-02-17T01:10:38;12.60;;;7.97;;
60006;SDS011;45863;50.336;3.536;2023-02-17T01:13:04;13.07;;;7.93;;
60006;SDS011;45863;50.336;3.536;2023-02-17T01:15:29;10.98;;;7.95;;
60006;SDS011;45863;50.336;3.536;2023-02-17T01:17:54;10.95;;;6.97;;
60006;SDS011;45863;50.336;3.536;2023-02-17T01:20:20;14.30;;;7.70;;
60006;SDS011;45863;50.336;3.536;2023-02-17T01:22:45;13.73;;;7.57;;
60006;SDS011;45863;50.336;3.536;2023-02-17T01:25:10;12.27;;;7.95;;
60006;SDS011;45863;50.336;3.536;2023-02-17T01:27:35;12.35;;;8.18;;
60006;SDS011;45863;50.336;3.536;2023-02-17T01:30:01;11.73;;;8.23;;
60006;SDS011;45863;50.336;3.536;2023-02-17T01:32:26;11.98;;;7.63;;
60006;SDS011;45863;50.336;3.536;2023-02-17T01:34:51;12.27;;;7.30;;
60006;SDS011;45863;50.336;3.536;2023-02-17T01:37:16;12.20;;;8.40;;
60006;SDS011;45863;50.336;3.536;2023-02-17T01:39:42;12.43;;;8.27;;
60006;SDS011;45863;50.336;3.536;2023-02-17T01:42:17;13.02;;;7.40;;
60006;SDS011;45863;50.336;3.536;2023-02-17T01:47:27;12.65;;;8.00;;
60006;SDS011;45863;50.336;3.536;2023-02-17T01:49:53;12.35;;;7.53;;
60006;SDS011;45863;50.336;3.536;2023-02-17T01:52:19;14.68;;;8.68;;
60006;SDS011;45863;50.336;3.536;2023-02-17T01:54:49;13.77;;;8.15;;
60006;SDS011;45863;50.336;3.536;2023-02-17T01:57:15;12.27;;;8.32;;
60006;SDS011;45863;50.336;3.536;2023-02-17T01:59:41;13.57;;;8.23;;
60006;SDS011;45863;50.336;3.536;2023-02-17T02:02:08;14.77;;;9.10;;
60006;SDS011;45863;50.336;3.536;2023-02-17T02:04:34;12.70;;;8.43;;
60006;SDS011;45863;50.336;3.536;2023-02-17T02:07:00;12.30;;;7.82;;
60006;SDS011;45863;50.336;3.536;2023-02-17T02:09:30;13.02;;;8.07;;
60006;SDS011;45863;50.336;3.536;2023-02-17T02:11:56;11.25;;;6.97;;
60006;SDS011;45863;50.336;3.536;2023-02-17T02:14:23;14.43;;;8.60;;
60006;SDS011;45863;50.336;3.536;2023-02-17T02:24:23;13.93;;;7.95;;
60006;SDS011;45863;50.336;3.536;2023-02-17T02:34:50;11.57;;;7.50;;
60006;SDS011;45863;50.336;3.536;2023-02-17T02:38:19;12.55;;;7.85;;
60006;SDS011;45863;50.336;3.536;2023-02-17T02:40:13;13.15;;;7.53;;
60006;SDS011;45863;50.336;3.536;2023-02-17T02:42:39;14.65;;;6.63;;
60006;SDS011;45863;50.336;3.536;2023-02-17T02:45:05;10.80;;;6.43;;
60006;SDS011;45863;50.336;3.536;2023-02-17T02:49:59;12.40;;;6.88;;
60006;SDS011;45863;50.336;3.536;2023-02-17T02:52:43;11.77;;;7.15;;
60006;SDS011;45863;50.336;3.536;2023-02-17T02:55:14;11.45;;;7.03;;
60006;SDS011;45863;50.336;3.536;2023-02-17T02:57:46;11.25;;;7.55;;
60006;SDS011;45863;50.336;3.536;2023-02-17T03:00:23;11.57;;;6.82;;
60006;SDS011;45863;50.336;3.536;2023-02-17T03:03:03;9.73;;;6.30;;
60006;SDS011;45863;50.336;3.536;2023-02-17T03:10:28;11.53;;;6.43;;
60006;SDS011;45863;50.336;3.536;2023-02-17T03:12:54;10.52;;;6.28;;
60006;SDS011;45863;50.336;3.536;2023-02-17T03:15:25;10.32;;;6.07;;
60006;SDS011;45863;50.336;3.536;2023-02-17T03:17:52;9.57;;;5.90;;
60006;SDS011;45863;50.336;3.536;2023-02-17T03:20:19;9.50;;;5.90;;
60006;SDS011;45863;50.336;3.536;2023-02-17T03:22:46;9.93;;;5.10;;
60006;SDS011;45863;50.336;3.536;2023-02-17T03:25:12;9.55;;;5.72;;
60006;SDS011;45863;50.336;3.536;2023-02-17T03:27:37;9.27;;;5.65;;
60006;SDS011;45863;50.336;3.536;2023-02-17T03:30:03;10.38;;;5.90;;
60006;SDS011;45863;50.336;3.536;2023-02-17T03:32:29;10.13;;;5.95;;
60006;SDS011;45863;50.336;3.536;2023-02-17T03:34:54;10.95;;;6.07;;
60006;SDS011;45863;50.336;3.536;2023-02-17T03:37:19;9.32;;;5.82;;
60006;SDS011;45863;50.336;3.536;2023-02-17T03:39:45;9.80;;;5.53;;
60006;SDS011;45863;50.336;3.536;2023-02-17T03:42:10;9.27;;;5.32;;
60006;SDS011;45863;50.336;3.536;2023-02-17T03:44:35;10.07;;;6.50;;
60006;SDS011;45863;50.336;3.536;2023-02-17T03:47:00;9.70;;;5.97;;
60006;SDS011;45863;50.336;3.536;2023-02-17T03:49:26;8.20;;;5.22;;
60006;SDS011;45863;50.336;3.536;2023-02-17T03:51:51;8.70;;;5.15;;
60006;SDS011;45863;50.336;3.536;2023-02-17T03:54:16;9.13;;;5.32;;
60006;SDS011;45863;50.336;3.536;2023-02-17T03:56:41;9.25;;;5.57;;
60006;SDS011;45863;50.336;3.536;2023-02-17T03:59:07;9.60;;;5.22;;
60006;SDS011;45863;50.336;3.536;2023-02-17T04:01:32;10.20;;;5.28;;
60006;SDS011;45863;50.336;3.536;2023-02-17T04:03:57;9.70;;;5.28;;
60006;SDS011;45863;50.336;3.536;2023-02-17T04:06:22;11.43;;;4.93;;
60006;SDS011;45863;50.336;3.536;2023-02-17T04:08:48;8.80;;;5.18;;
60006;SDS011;45863;50.336;3.536;2023-02-17T04:11:13;10.30;;;4.93;;
60006;SDS011;45863;50.336;3.536;2023-02-17T04:13:38;10.05;;;4.28;;
60006;SDS011;45863;50.336;3.536;2023-02-17T04:16:04;10.82;;;5.82;;
60006;SDS011;45863;50.336;3.536;2023-02-17T04:18:30;10.25;;;5.00;;
60006;SDS011;45863;50.336;3.536;2023-02-17T04:20:56;8.80;;;4.78;;
60006;SDS011;45863;50.336;3.536;2023-02-17T04:23:21;8.75;;;4.88;;
60006;SDS011;45863;50.336;3.536;2023-02-17T04:25:46;8.95;;;4.95;;
60006;SDS011;45863;50.336;3.536;2023-02-17T04:28:12;10.80;;;5.13;;
60006;SDS011;45863;50.336;3.536;2023-02-17T04:30:38;9.55;;;5.07;;
60006;SDS011;45863;50.336;3.536;2023-02-17T04:33:03;8.55;;;5.15;;
60006;SDS011;45863;50.336;3.536;2023-02-17T04:35:29;9.52;;;5.47;;
60006;SDS011;45863;50.336;3.536;2023-02-17T04:37:54;10.82;;;5.13;;
60006;SDS011;45863;50.336;3.536;2023-02-17T04:40:19;11.35;;;4.82;;
60006;SDS011;45863;50.336;3.536;2023-02-17T04:42:45;8.65;;;4.93;;
60006;SDS011;45863;50.336;3.536;2023-02-17T04:45:10;9.02;;;4.95;;
60006;SDS011;45863;50.336;3.536;2023-02-17T04:47:36;9.82;;;4.68;;
60006;SDS011;45863;50.336;3.536;2023-02-17T04:50:02;10.00;;;5.03;;
60006;SDS011;45863;50.336;3.536;2023-02-17T04:52:27;10.98;;;5.40;;
60006;SDS011;45863;50.336;3.536;2023-02-17T04:54:52;9.68;;;5.45;;
60006;SDS011;45863;50.336;3.536;2023-02-17T04:57:18;8.63;;;5.00;;
60006;SDS011;45863;50.336;3.536;2023-02-17T04:59:43;10.80;;;5.03;;
60006;SDS011;45863;50.336;3.536;2023-02-17T05:02:08;8.23;;;4.55;;
60006;SDS011;45863;50.336;3.536;2023-02-17T05:04:34;9.57;;;5.10;;
60006;SDS011;45863;50.336;3.536;2023-02-17T05:06:59;8.82;;;5.10;;
60006;SDS011;45863;50.336;3.536;2023-02-17T05:09:24;8.70;;;4.95;;
60006;SDS011;45863;50.336;3.536;2023-02-17T05:11:49;11.15;;;5.88;;
60006;SDS011;45863;50.336;3.536;2023-02-17T05:14:15;8.13;;;4.18;;
60006;SDS011;45863;50.336;3.536;2023-02-17T05:16:40;9.57;;;5.70;;
60006;SDS011;45863;50.336;3.536;2023-02-17T05:19:05;10.15;;;5.90;;
60006;SDS011;45863;50.336;3.536;2023-02-17T05:21:30;9.27;;;4.85;;
60006;SDS011;45863;50.336;3.536;2023-02-17T05:23:56;11.57;;;5.65;;
60006;SDS011;45863;50.336;3.536;2023-02-17T05:26:22;9.40;;;4.97;;
60006;SDS011;45863;50.336;3.536;2023-02-17T05:28:47;12.50;;;5.72;;
60006;SDS011;45863;50.336;3.536;2023-02-17T05:31:12;10.20;;;5.40;;
60006;SDS011;45863;50.336;3.536;2023-02-17T05:33:37;11.73;;;6.75;;
60006;SDS011;45863;50.336;3.536;2023-02-17T05:36:03;14.20;;;7.85;;
60006;SDS011;45863;50.336;3.536;2023-02-17T05:38:29;11.95;;;6.03;;
60006;SDS011;45863;50.336;3.536;2023-02-17T05:40:54;14.38;;;8.05;;
60006;SDS011;45863;50.336;3.536;2023-02-17T05:43:19;13.05;;;7.28;;
60006;SDS011;45863;50.336;3.536;2023-02-17T05:45:45;13.93;;;7.63;;
60006;SDS011;45863;50.336;3.536;2023-02-17T05:48:10;13.57;;;6.40;;
60006;SDS011;45863;50.336;3.536;2023-02-17T05:50:35;13.45;;;7.07;;
60006;SDS011;45863;50.336;3.536;2023-02-17T05:53:00;13.48;;;7.57;;
60006;SDS011;45863;50.336;3.536;2023-02-17T05:55:26;15.68;;;8.20;;
60006;SDS011;45863;50.336;3.536;2023-02-17T05:57:51;15.85;;;8.23;;
60006;SDS011;45863;50.336;3.536;2023-02-17T06:00:16;13.40;;;7.45;;
60006;SDS011;45863;50.336;3.536;2023-02-17T06:02:41;12.10;;;6.32;;
60006;SDS011;45863;50.336;3.536;2023-02-17T06:05:06;11.63;;;5.67;;
60006;SDS011;45863;50.336;3.536;2023-02-17T06:07:32;14.95;;;8.43;;
60006;SDS011;45863;50.336;3.536;2023-02-17T06:09:57;15.88;;;8.18;;
60006;SDS011;45863;50.336;3.536;2023-02-17T06:12:22;16.42;;;8.02;;
60006;SDS011;45863;50.336;3.536;2023-02-17T06:14:48;14.93;;;7.85;;
60006;SDS011;45863;50.336;3.536;2023-02-17T06:17:13;15.32;;;7.60;;
60006;SDS011;45863;50.336;3.536;2023-02-17T06:19:38;16.60;;;8.30;;
60006;SDS011;45863;50.336;3.536;2023-02-17T06:22:03;14.68;;;7.97;;
60006;SDS011;45863;50.336;3.536;2023-02-17T06:24:29;13.25;;;6.80;;
60006;SDS011;45863;50.336;3.536;2023-02-17T06:26:54;18.48;;;7.65;;
60006;SDS011;45863;50.336;3.536;2023-02-17T06:29:19;15.30;;;8.82;;
60006;SDS011;45863;50.336;3.536;2023-02-17T06:31:44;15.10;;;7.85;;
60006;SDS011;45863;50.336;3.536;2023-02-17T06:34:09;15.88;;;8.15;;
60006;SDS011;45863;50.336;3.536;2023-02-17T06:36:35;15.75;;;8.93;;
60006;SDS011;45863;50.336;3.536;2023-02-17T06:39:01;15.10;;;7.57;;
60006;SDS011;45863;50.336;3.536;2023-02-17T06:41:26;16.27;;;6.97;;
60006;SDS011;45863;50.336;3.536;2023-02-17T06:43:51;17.13;;;8.73;;
60006;SDS011;45863;50.336;3.536;2023-02-17T06:46:16;16.10;;;8.07;;
60006;SDS011;45863;50.336;3.536;2023-02-17T06:48:41;14.90;;;7.77;;
60006;SDS011;45863;50.336;3.536;2023-02-17T06:51:07;14.98;;;6.88;;
60006;SDS011;45863;50.336;3.536;2023-02-17T06:53:32;19.02;;;7.65;;
60006;SDS011;45863;50.336;3.536;2023-02-17T06:55:57;16.08;;;7.82;;
60006;SDS011;45863;50.336;3.536;2023-02-17T06:58:22;16.65;;;7.57;;
60006;SDS011;45863;50.336;3.536;2023-02-17T07:00:47;15.77;;;7.67;;
60006;SDS011;45863;50.336;3.536;2023-02-17T07:03:13;17.85;;;8.43;;
60006;SDS011;45863;50.336;3.536;2023-02-17T07:05:38;18.90;;;8.60;;
60006;SDS011;45863;50.336;3.536;2023-02-17T07:08:04;17.15;;;9.00;;
60006;SDS011;45863;50.336;3.536;2023-02-17T07:10:29;16.48;;;8.50;;
60006;SDS011;45863;50.336;3.536;2023-02-17T07:12:55;17.67;;;7.90;;
60006;SDS011;45863;50.336;3.536;2023-02-17T07:15:20;14.80;;;7.90;;
60006;SDS011;45863;50.336;3.536;2023-02-17T07:17:45;16.20;;;8.73;;
60006;SDS011;45863;50.336;3.536;2023-02-17T07:20:10;17.23;;;7.90;;
60006;SDS011;45863;50.336;3.536;2023-02-17T07:22:36;16.15;;;7.20;;
60006;SDS011;45863;50.336;3.536;2023-02-17T07:25:02;14.43;;;6.28;;
60006;SDS011;45863;50.336;3.536;2023-02-17T07:27:27;13.20;;;7.35;;
60006;SDS011;45863;50.336;3.536;2023-02-17T07:29:52;14.10;;;7.10;;
60006;SDS011;45863;50.336;3.536;2023-02-17T07:32:17;12.25;;;6.60;;
60006;SDS011;45863;50.336;3.536;2023-02-17T07:34:42;11.57;;;6.50;;
60006;SDS011;45863;50.336;3.536;2023-02-17T07:37:08;12.23;;;6.07;;
60006;SDS011;45863;50.336;3.536;2023-02-17T07:39:33;14.40;;;6.07;;
60006;SDS011;45863;50.336;3.536;2023-02-17T07:41:58;12.50;;;5.70;;
60006;SDS011;45863;50.336;3.536;2023-02-17T07:44:25;11.88;;;5.18;;
60006;SDS011;45863;50.336;3.536;2023-02-17T07:46:50;12.20;;;5.47;;
60006;SDS011;45863;50.336;3.536;2023-02-17T07:49:15;12.40;;;6.35;;
60006;SDS011;45863;50.336;3.536;2023-02-17T07:51:41;10.55;;;5.13;;
60006;SDS011;45863;50.336;3.536;2023-02-17T07:54:07;15.18;;;6.22;;
60006;SDS011;45863;50.336;3.536;2023-02-17T07:56:32;10.35;;;5.13;;
60006;SDS011;45863;50.336;3.536;2023-02-17T07:58:57;13.45;;;6.30;;
60006;SDS011;45863;50.336;3.536;2023-02-17T08:01:23;16.20;;;7.10;;
60006;SDS011;45863;50.336;3.536;2023-02-17T08:03:49;13.38;;;6.30;;
60006;SDS011;45863;50.336;3.536;2023-02-17T08:06:15;13.73;;;5.97;;
60006;SDS011;45863;50.336;3.536;2023-02-17T08:08:41;15.60;;;7.22;;
60006;SDS011;45863;50.336;3.536;2023-02-17T08:11:25;15.05;;;7.88;;
60006;SDS011;45863;50.336;3.536;2023-02-17T08:14:08;16.63;;;7.78;;
60006;SDS011;45863;50.336;3.536;2023-02-17T08:16:34;16.40;;;7.85;;
60006;SDS011;45863;50.336;3.536;2023-02-17T08:18:59;16.07;;;8.00;;
60006;SDS011;45863;50.336;3.536;2023-02-17T08:21:25;15.50;;;6.90;;
60006;SDS011;45863;50.336;3.536;2023-02-17T08:23:50;21.40;;;7.80;;
60006;SDS011;45863;50.336;3.536;2023-02-17T08:26:16;13.48;;;6.63;;
60006;SDS011;45863;50.336;3.536;2023-02-17T08:28:42;15.20;;;6.68;;
60006;SDS011;45863;50.336;3.536;2023-02-17T08:31:14;17.45;;;8.05;;
60006;SDS011;45863;50.336;3.536;2023-02-17T08:33:39;19.88;;;8.43;;
60006;SDS011;45863;50.336;3.536;2023-02-17T08:36:05;9.63;;;5.18;;
60006;SDS011;45863;50.336;3.536;2023-02-17T08:38:30;16.48;;;6.95;;
60006;SDS011;45863;50.336;3.536;2023-02-17T08:40:56;14.53;;;6.50;;
60006;SDS011;45863;50.336;3.536;2023-02-17T08:43:21;14.48;;;7.00;;
60006;SDS011;45863;50.336;3.536;2023-02-17T08:45:46;14.40;;;6.80;;
60006;SDS011;45863;50.336;3.536;2023-02-17T08:48:12;14.82;;;7.00;;
60006;SDS011;45863;50.336;3.536;2023-02-17T08:50:37;12.00;;;5.77;;
60006;SDS011;45863;50.336;3.536;2023-02-17T08:53:02;13.63;;;6.73;;
60006;SDS011;45863;50.336;3.536;2023-02-17T08:55:27;14.15;;;5.57;;
60006;SDS011;45863;50.336;3.536;2023-02-17T08:57:52;11.38;;;5.90;;
60006;SDS011;45863;50.336;3.536;2023-02-17T09:00:18;11.77;;;4.77;;
60006;SDS011;45863;50.336;3.536;2023-02-17T09:02:43;10.75;;;4.82;;
60006;SDS011;45863;50.336;3.536;2023-02-17T09:05:09;11.65;;;5.53;;
60006;SDS011;45863;50.336;3.536;2023-02-17T09:07:36;12.38;;;5.80;;
60006;SDS011;45863;50.336;3.536;2023-02-17T09:10:01;11.10;;;5.22;;
60006;SDS011;45863;50.336;3.536;2023-02-17T09:12:26;10.45;;;5.28;;
60006;SDS011;45863;50.336;3.536;2023-02-17T09:14:51;10.73;;;4.40;;
60006;SDS011;45863;50.336;3.536;2023-02-17T09:17:16;11.82;;;5.35;;
60006;SDS011;45863;50.336;3.536;2023-02-17T09:19:42;10.90;;;4.78;;
60006;SDS011;45863;50.336;3.536;2023-02-17T09:22:07;12.23;;;5.53;;
60006;SDS011;45863;50.336;3.536;2023-02-17T09:24:32;10.45;;;4.75;;
60006;SDS011;45863;50.336;3.536;2023-02-17T09:27:00;9.93;;;4.75;;
60006;SDS011;45863;50.336;3.536;2023-02-17T09:29:25;10.63;;;4.55;;
60006;SDS011;45863;50.336;3.536;2023-02-17T09:31:51;15.52;;;5.88;;
60006;SDS011;45863;50.336;3.536;2023-02-17T09:34:16;11.07;;;5.10;;
60006;SDS011;45863;50.336;3.536;2023-02-17T09:36:41;12.80;;;4.47;;
60006;SDS011;45863;50.336;3.536;2023-02-17T09:39:07;9.57;;;4.32;;
60006;SDS011;45863;50.336;3.536;2023-02-17T09:41:49;9.52;;;4.93;;
60006;SDS011;45863;50.336;3.536;2023-02-17T09:46:47;7.97;;;3.60;;
60006;SDS011;45863;50.336;3.536;2023-02-17T09:49:18;9.73;;;4.20;;
60006;SDS011;45863;50.336;3.536;2023-02-17T09:51:46;7.15;;;3.38;;
60006;SDS011;45863;50.336;3.536;2023-02-17T09:54:20;9.30;;;3.58;;
60006;SDS011;45863;50.336;3.536;2023-02-17T09:56:47;9.55;;;3.03;;
60006;SDS011;45863;50.336;3.536;2023-02-17T10:01:39;8.13;;;3.37;;
60006;SDS011;45863;50.336;3.536;2023-02-17T10:04:07;5.65;;;2.40;;
60006;SDS011;45863;50.336;3.536;2023-02-17T10:06:36;8.02;;;2.67;;
60006;SDS011;45863;50.336;3.536;2023-02-17T10:09:06;7.38;;;2.47;;
60006;SDS011;45863;50.336;3.536;2023-02-17T10:11:34;6.82;;;2.92;;
60006;SDS011;45863;50.336;3.536;2023-02-17T10:14:01;7.43;;;3.30;;
60006;SDS011;45863;50.336;3.536;2023-02-17T10:16:29;7.93;;;2.83;;
60006;SDS011;45863;50.336;3.536;2023-02-17T10:18:58;5.35;;;2.92;;
60006;SDS011;45863;50.336;3.536;2023-02-17T10:21:28;6.47;;;2.30;;
60006;SDS011;45863;50.336;3.536;2023-02-17T10:23:55;4.20;;;2.22;;
60006;SDS011;45863;50.336;3.536;2023-02-17T10:34:01;7.78;;;2.53;;
60006;SDS011;45863;50.336;3.536;2023-02-17T10:39:57;4.90;;;2.25;;
60006;SDS011;45863;50.336;3.536;2023-02-17T10:42:04;5.80;;;2.15;;
60006;SDS011;45863;50.336;3.536;2023-02-17T10:44:30;5.35;;;2.83;;
60006;SDS011;45863;50.336;3.536;2023-02-17T10:46:57;3.97;;;2.10;;
60006;SDS011;45863;50.336;3.536;2023-02-17T10:51:48;4.50;;;2.10;;
60006;SDS011;45863;50.336;3.536;2023-02-17T10:54:34;6.80;;;2.50;;
60006;SDS011;45863;50.336;3.536;2023-02-17T10:56:59;5.28;;;2.38;;
60006;SDS011;45863;50.336;3.536;2023-02-17T10:59:36;5.03;;;2.20;;
60006;SDS011;45863;50.336;3.536;2023-02-17T11:05:07;5.07;;;2.03;;
60006;SDS011;45863;50.336;3.536;2023-02-17T11:07:36;4.97;;;2.22;;
60006;SDS011;45863;50.336;3.536;2023-02-17T11:10:18;3.88;;;1.83;;
60006;SDS011;45863;50.336;3.536;2023-02-17T11:12:44;6.35;;;2.38;;
60006;SDS011;45863;50.336;3.536;2023-02-17T11:15:16;4.72;;;2.40;;
60006;SDS011;45863;50.336;3.536;2023-02-17T11:17:43;5.72;;;2.88;;
60006;SDS011;45863;50.336;3.536;2023-02-17T11:22:37;5.47;;;2.42;;
60006;SDS011;45863;50.336;3.536;2023-02-17T11:25:06;5.70;;;2.95;;
60006;SDS011;45863;50.336;3.536;2023-02-17T11:27:32;6.97;;;2.75;;
60006;SDS011;45863;50.336;3.536;2023-02-17T11:30:08;3.78;;;1.70;;
60006;SDS011;45863;50.336;3.536;2023-02-17T11:32:34;3.55;;;1.70;;
60006;SDS011;45863;50.336;3.536;2023-02-17T11:35:00;5.15;;;2.55;;
60006;SDS011;45863;50.336;3.536;2023-02-17T11:37:28;4.80;;;2.53;;
60006;SDS011;45863;50.336;3.536;2023-02-17T11:39:56;5.70;;;2.28;;
60006;SDS011;45863;50.336;3.536;2023-02-17T11:42:22;4.10;;;2.13;;
60006;SDS011;45863;50.336;3.536;2023-02-17T11:44:47;4.00;;;2.13;;
60006;SDS011;45863;50.336;3.536;2023-02-17T11:47:21;5.28;;;2.08;;
60006;SDS011;45863;50.336;3.536;2023-02-17T11:50:33;4.47;;;2.20;;
60006;SDS011;45863;50.336;3.536;2023-02-17T11:52:42;6.70;;;2.50;;
60006;SDS011;45863;50.336;3.536;2023-02-17T12:00:17;5.28;;;1.83;;
60006;SDS011;45863;50.336;3.536;2023-02-17T12:12:56;5.68;;;1.70;;
60006;SDS011;45863;50.336;3.536;2023-02-17T12:18:02;5.82;;;1.55;;
60006;SDS011;45863;50.336;3.536;2023-02-17T12:20:38;6.65;;;1.73;;
60006;SDS011;45863;50.336;3.536;2023-02-17T12:23:18;4.85;;;1.65;;
60006;SDS011;45863;50.336;3.536;2023-02-17T12:25:49;5.47;;;1.15;;
60006;SDS011;45863;50.336;3.536;2023-02-17T12:28:31;5.07;;;1.50;;
60006;SDS011;45863;50.336;3.536;2023-02-17T12:31:09;2.58;;;1.00;;
60006;SDS011;45863;50.336;3.536;2023-02-17T12:36:13;4.55;;;1.40;;
60006;SDS011;45863;50.336;3.536;2023-02-17T12:38:42;2.75;;;1.20;;
60006;SDS011;45863;50.336;3.536;2023-02-17T12:41:17;2.55;;;1.20;;
60006;SDS011;45863;50.336;3.536;2023-02-17T12:43:57;2.80;;;0.90;;
60006;SDS011;45863;50.336;3.536;2023-02-17T12:47:09;3.80;;;1.27;;
60006;SDS011;45863;50.336;3.536;2023-02-17T12:49:19;3.20;;;1.30;;
60006;SDS011;45863;50.336;3.536;2023-02-17T12:51:53;3.30;;;0.98;;
60006;SDS011;45863;50.336;3.536;2023-02-17T13:01:55;3.20;;;1.60;;
60006;SDS011;45863;50.336;3.536;2023-02-17T13:04:23;5.00;;;1.02;;
60006;SDS011;45863;50.336;3.536;2023-02-17T13:06:54;7.00;;;1.35;;
60006;SDS011;45863;50.336;3.536;2023-02-17T13:09:32;1.77;;;1.00;;
60006;SDS011;45863;50.336;3.536;2023-02-17T13:14:43;3.22;;;1.08;;
60006;SDS011;45863;50.336;3.536;2023-02-17T13:17:22;1.90;;;0.90;;
60006;SDS011;45863;50.336;3.536;2023-02-17T13:19:58;1.83;;;1.02;;
60006;SDS011;45863;50.336;3.536;2023-02-17T13:22:24;2.45;;;1.08;;
60006;SDS011;45863;50.336;3.536;2023-02-17T13:24:52;3.90;;;1.50;;
60006;SDS011;45863;50.336;3.536;2023-02-17T13:30:26;2.75;;;1.13;;
60006;SDS011;45863;50.336;3.536;2023-02-17T13:33:06;3.53;;;0.75;;
60006;SDS011;45863;50.336;3.536;2023-02-17T13:35:33;3.03;;;0.93;;
60006;SDS011;45863;50.336;3.536;2023-02-17T13:37:58;2.08;;;0.90;;
60006;SDS011;45863;50.336;3.536;2023-02-17T13:40:30;2.60;;;0.98;;
60006;SDS011;45863;50.336;3.536;2023-02-17T13:42:56;3.47;;;0.90;;
60006;SDS011;45863;50.336;3.536;2023-02-17T13:47:47;10.73;;;2.15;;
60006;SDS011;45863;50.336;3.536;2023-02-17T13:52:54;2.20;;;0.97;;
60006;SDS011;45863;50.336;3.536;2023-02-17T13:55:19;1.55;;;0.60;;
60006;SDS011;45863;50.336;3.536;2023-02-17T13:57:44;3.17;;;1.00;;
60006;SDS011;45863;50.336;3.536;2023-02-17T14:00:21;3.17;;;0.90;;
60006;SDS011;45863;50.336;3.536;2023-02-17T14:03:32;3.03;;;1.13;;
60006;SDS011;45863;50.336;3.536;2023-02-17T14:08:07;3.40;;;1.30;;
60006;SDS011;45863;50.336;3.536;2023-02-17T14:10:35;3.38;;;1.02;;
60006;SDS011;45863;50.336;3.536;2023-02-17T14:13:01;2.25;;;1.00;;
60006;SDS011;45863;50.336;3.536;2023-02-17T14:15:27;2.65;;;1.00;;
60006;SDS011;45863;50.336;3.536;2023-02-17T14:17:53;2.35;;;1.00;;
60006;SDS011;45863;50.336;3.536;2023-02-17T14:25:25;4.72;;;1.38;;
60006;SDS011;45863;50.336;3.536;2023-02-17T14:27:50;2.08;;;1.17;;
60006;SDS011;45863;50.336;3.536;2023-02-17T14:33:00;4.40;;;1.35;;
60006;SDS011;45863;50.336;3.536;2023-02-17T14:35:26;5.57;;;1.77;;
60006;SDS011;45863;50.336;3.536;2023-02-17T14:37:51;4.90;;;1.42;;
60006;SDS011;45863;50.336;3.536;2023-02-17T14:40:18;7.35;;;1.60;;
60006;SDS011;45863;50.336;3.536;2023-02-17T14:42:43;4.35;;;0.90;;
60006;SDS011;45863;50.336;3.536;2023-02-17T14:45:09;2.53;;;1.05;;
60006;SDS011;45863;50.336;3.536;2023-02-17T14:47:34;2.92;;;1.17;;
60006;SDS011;45863;50.336;3.536;2023-02-17T14:49:59;2.53;;;1.30;;
60006;SDS011;45863;50.336;3.536;2023-02-17T14:52:24;3.20;;;1.27;;
60006;SDS011;45863;50.336;3.536;2023-02-17T14:54:50;4.50;;;1.50;;
60006;SDS011;45863;50.336;3.536;2023-02-17T14:57:15;2.67;;;1.23;;
60006;SDS011;45863;50.336;3.536;2023-02-17T14:59:41;3.15;;;1.20;;
60006;SDS011;45863;50.336;3.536;2023-02-17T15:02:13;2.83;;;1.20;;
60006;SDS011;45863;50.336;3.536;2023-02-17T15:04:39;1.90;;;1.05;;
60006;SDS011;45863;50.336;3.536;2023-02-17T15:07:07;2.25;;;1.00;;
60006;SDS011;45863;50.336;3.536;2023-02-17T15:09:33;3.63;;;1.20;;
60006;SDS011;45863;50.336;3.536;2023-02-17T15:11:59;1.73;;;0.70;;
60006;SDS011;45863;50.336;3.536;2023-02-17T15:14:24;1.65;;;0.80;;
60006;SDS011;45863;50.336;3.536;2023-02-17T15:16:49;4.63;;;1.33;;
60006;SDS011;45863;50.336;3.536;2023-02-17T15:19:14;3.67;;;1.25;;
60006;SDS011;45863;50.336;3.536;2023-02-17T15:21:43;4.30;;;0.90;;
60006;SDS011;45863;50.336;3.536;2023-02-17T15:24:27;2.85;;;1.20;;
60006;SDS011;45863;50.336;3.536;2023-02-17T15:26:54;3.70;;;1.23;;
60006;SDS011;45863;50.336;3.536;2023-02-17T15:29:23;2.67;;;1.10;;
60006;SDS011;45863;50.336;3.536;2023-02-17T15:31:49;2.80;;;1.27;;
60006;SDS011;45863;50.336;3.536;2023-02-17T15:34:15;2.78;;;0.98;;
60006;SDS011;45863;50.336;3.536;2023-02-17T15:36:41;2.47;;;1.10;;
60006;SDS011;45863;50.336;3.536;2023-02-17T15:39:08;2.50;;;0.90;;
60006;SDS011;45863;50.336;3.536;2023-02-17T15:41:33;2.30;;;1.00;;
60006;SDS011;45863;50.336;3.536;2023-02-17T15:43:58;5.07;;;1.00;;
60006;SDS011;45863;50.336;3.536;2023-02-17T15:46:26;2.00;;;0.75;;
60006;SDS011;45863;50.336;3.536;2023-02-17T15:48:52;3.17;;;1.10;;
60006;SDS011;45863;50.336;3.536;2023-02-17T15:51:17;4.70;;;1.73;;
60006;SDS011;45863;50.336;3.536;2023-02-17T15:53:44;2.45;;;0.88;;
60006;SDS011;45863;50.336;3.536;2023-02-17T15:56:52;2.55;;;1.02;;
60006;SDS011;45863;50.336;3.536;2023-02-17T15:58:58;3.47;;;1.00;;
60006;SDS011;45863;50.336;3.536;2023-02-17T16:03:52;2.28;;;0.93;;
60006;SDS011;45863;50.336;3.536;2023-02-17T16:06:18;4.85;;;1.95;;
60006;SDS011;45863;50.336;3.536;2023-02-17T16:08:43;2.10;;;0.90;;
60006;SDS011;45863;50.336;3.536;2023-02-17T16:11:10;2.72;;;1.02;;
60006;SDS011;45863;50.336;3.536;2023-02-17T16:13:36;2.30;;;0.93;;
60006;SDS011;45863;50.336;3.536;2023-02-17T16:16:01;6.95;;;1.00;;
60006;SDS011;45863;50.336;3.536;2023-02-17T16:18:27;4.88;;;1.25;;
60006;SDS011;45863;50.336;3.536;2023-02-17T16:20:52;2.85;;;1.15;;